Airfield :
LOGIN :

Register | Disclaimer

   EN    FR    IT 

 










Legend :    VFR   Marginal VFR   IFR   Intensive IFR   Very Intensive IFR
Visi :
Ceiling :
>= 8 km
>= 3000ft
5 to 8 km
1000 to 3000 ft
1500m to 5 km
500 to 1000 ft
800 to 1500m
200 to 500 ft
< 800m
< 200 ft
Symbols :   Thunderstorms  Fog  Heavy snow  Heavy precipitations  Wind > 20 kt
SIGMETs :     Misc.  Thunderstorms  Icing  Turbulence  Mountain Waves  Volcanic Ashes






- Airport Elevation : 542 ft
- IATA code : PJA


ESUP - Pajala

CURRENT METAR :
  • 231720Z AUTO 24007KT 220V280 9999 // NCD 24/05 Q1015

EXPIRED METARs :
  • 231650Z AUTO 25011KT 220V280 9999 NCD 24/03 Q1015
  • 231620Z 25013KT 220V280 CAVOK 25/03 Q1015
  • 231550Z AUTO 23014KT 200V260 9999 NCD 25/02 Q1015
  • 231520Z AUTO 23015KT 200V270 9999 FEW220/// 25/02 Q1015
  • 231450Z AUTO 22013KT 9999 // NCD 25/04 Q1015
  • 231420Z AUTO 23011KT 190V270 9999 NCD 25/03 Q1016
  • 231350Z AUTO 23013KT 190V260 9999 NCD 24/04 Q1016
  • 231320Z AUTO 20014KT 170V230 9999 NCD 24/04 Q1016

TAF N/A



MET'MAP, your aeronautical weather chart ! - Copyright ORBIFLY December 2007 - Disclaimer

ORBIFLY MET'MAP TEAM :

Programming & Development : Alexandra Zaïnal
Original concept : Baudouin d'Aumeries
Technical & hardware support : Manuel Goepfert
Assistance : Marc-Olivier Méhu




SOURCES & CREDITS :

   NOAA